Brownsville South Padre Island International Airport
KBRO : now visible

Airfield :











YOU CAN JOIN US ON...

 
LOGIN :

Register | Disclaimer

   EN    FR    IT 

 









Legend :    VFR   Marginal VFR   IFR   Intensive IFR   Very Intensive IFR
Visi :
Ceiling :
>= 8 km
>= 3000ft
5 to 8 km
1000 to 3000 ft
1500m to 5 km
500 to 1000 ft
800 to 1500m
200 to 500 ft
< 800m
< 200 ft
Symbols :   Thunderstorms  Fog  Heavy snow  Heavy precipitations  Wind > 20 kt






- Airport Elevation : 22 ft
- IATA code : BRO


KBRO - Brownsville South Padre Island International

CURRENT METAR :
  • 031353Z 20007KT 10SM CLR 31/25 A2997 RMK AO2 SLP147 T03060250

EXPIRED METARs :
  • 031253Z 20004KT 10SM FEW015 FEW023 SCT085 28/25 A2997 RMK AO2 SLP146 T02830250
  • 031247Z 21005KT 10SM SCT015 SCT023 BKN085 28/25 A2997 RMK AO2
  • 031200Z 00000KT 10SM 27/25 A2996 RMK AO2 T02720250 $

TAF KBRO
Valid from the 03 at 12:00 until the 04 at 12:00 UTC


031120Z 0312/0412 14004KT P6SM SCT100
FM031500 20009KT P6SM VCSH SCT100
FM031900 17015KT P6SM VCTS SCT030 BKN100CB
FM040000 14010KT P6SM VCSH SCT100
KZHU FIR / North America



MET'MAP, your aeronautical weather chart ! - Copyright ORBIFLY December 2007 - Disclaimer

ORBIFLY MET'MAP TEAM :

Programming & Development : Alexandra Zaïnal
Concept & original design : Baudouin d'Aumeries
Assistance for programming : Marc-Olivier Méhu
Technical & hardware support : Manuel Goepfert

Contact : metmap@orbifly.com




SOURCES & CREDITS :

   NOAA       Earth
Advisory